Time;durP1;ratioP1;P1;durP2;ratioP2;P2;SDS_P1;SDS_P2;PMS_P1;PMS_P2;Temp;Humidity;BMP_temperature;BMP_pressure;BME280_temperature;BME280_humidity;BME280_pressure;Samples;Min_cycle;Max_cycle;Signal;HPM_P1;HPM_P2
2022/07/08 00:06:24;;;;;;;1.50;1.40;;;13.00;99.90;;;;;;20908860;28;20037;-82
2022/07/08 00:16:25;;;;;;;4.80;1.70;;;12.80;99.90;;;;;;20905733;28;20032;-82
2022/07/08 00:26:26;;;;;;;2.30;1.63;;;12.90;99.90;;;;;;20905351;28;20392;-82
2022/07/08 00:36:27;;;;;;;4.03;2.00;;;12.60;99.90;;;;;;20903925;28;20032;-82
2022/07/08 00:46:28;;;;;;;2.87;2.30;;;12.50;99.90;;;;;;20903051;28;20493;-81
2022/07/08 00:56:29;;;;;;;2.07;1.73;;;12.20;99.90;;;;;;20902898;28;20037;-82
2022/07/08 01:06:30;;;;;;;2.63;1.80;;;12.50;99.90;;;;;;20917658;28;20025;-84
2022/07/08 01:16:31;;;;;;;2.57;2.07;;;12.40;99.90;;;;;;20916814;28;20033;-84
2022/07/08 01:26:33;;;;;;;3.47;2.20;;;12.00;99.90;;;;;;20899326;28;20307;-82
2022/07/08 01:36:33;;;;;;;;;;;12.00;99.90;;;;;;20899892;28;20595;-81
2022/07/08 01:46:35;;;;;;;3.08;1.90;;;11.70;99.90;;;;;;20915042;28;20288;-82
2022/07/08 01:56:36;;;;;;;3.50;2.00;;;12.10;99.90;;;;;;20915051;28;20510;-82
2022/07/08 02:06:36;;;;;;;3.17;2.20;;;12.30;99.90;;;;;;20896924;28;20619;-82
2022/07/08 02:16:37;;;;;;;2.30;2.00;;;12.40;99.90;;;;;;20914059;28;20507;-81
2022/07/08 02:26:38;;;;;;;5.17;2.20;;;12.40;99.90;;;;;;20896788;28;20033;-82
2022/07/08 02:36:39;;;;;;;3.00;2.30;;;12.50;99.90;;;;;;20911098;28;20471;-81
2022/07/08 02:46:41;;;;;;;3.03;1.70;;;12.60;99.90;;;;;;20893821;28;20118;-81
2022/07/08 02:56:42;;;;;;;5.35;2.17;;;12.60;99.90;;;;;;20893605;28;20390;-82
2022/07/08 03:06:43;;;;;;;3.07;2.03;;;12.80;99.90;;;;;;20910222;28;20377;-82
2022/07/08 03:16:44;;;;;;;5.23;1.87;;;12.80;99.90;;;;;;20910301;28;20033;-82
2022/07/08 03:26:45;;;;;;;5.10;2.30;;;12.90;99.90;;;;;;20913097;28;20403;-82
2022/07/08 03:36:46;;;;;;;1.83;1.57;;;12.90;99.90;;;;;;20910010;28;20036;-82
2022/07/08 03:46:47;;;;;;;7.43;1.80;;;12.90;99.90;;;;;;20853412;28;20195;-81
2022/07/08 03:56:47;;;;;;;2.50;2.10;;;12.80;99.90;;;;;;20876130;28;20395;-81
2022/07/08 04:06:48;;;;;;;2.20;1.83;;;13.00;99.90;;;;;;20906447;28;20056;-82
2022/07/08 04:16:49;;;;;;;3.47;1.93;;;13.30;99.90;;;;;;20887755;28;20033;-82
2022/07/08 04:26:50;;;;;;;3.20;1.73;;;13.20;99.90;;;;;;20905742;28;20029;-82
2022/07/08 04:36:51;;;;;;;5.30;1.90;;;13.20;99.90;;;;;;20887951;28;20029;-82
2022/07/08 04:46:52;;;;;;;2.10;1.90;;;13.20;99.90;;;;;;20906951;28;20033;-82
2022/07/08 04:56:53;;;;;;;6.37;2.23;;;13.10;99.90;;;;;;20908700;28;20033;-82
2022/07/08 05:06:54;;;;;;;3.20;1.80;;;13.30;99.90;;;;;;20919513;28;20506;-81
2022/07/08 05:16:58;;;;;;;7.23;2.17;;;13.70;99.90;;;;;;20920227;28;20036;-82
2022/07/08 05:26:59;;;;;;;3.97;2.70;;;14.20;99.90;;;;;;20916537;28;20033;-82
2022/07/08 05:37:00;;;;;;;3.00;2.43;;;14.40;99.90;;;;;;20922061;28;20519;-82
2022/07/08 05:47:01;;;;;;;2.47;2.20;;;14.80;99.90;;;;;;20920693;28;20510;-82
2022/07/08 05:57:02;;;;;;;3.47;2.30;;;15.20;99.90;;;;;;20919474;28;20048;-86
2022/07/08 06:07:03;;;;;;;3.67;1.87;;;15.50;99.90;;;;;;20908029;28;20037;-82
2022/07/08 06:17:04;;;;;;;4.18;2.00;;;16.00;99.90;;;;;;20927257;28;20029;-84
2022/07/08 06:27:05;;;;;;;5.30;2.60;;;16.50;99.90;;;;;;20930493;28;20411;-83
2022/07/08 06:37:06;;;;;;;4.53;2.87;;;16.90;99.90;;;;;;20938921;28;20036;-85
2022/07/08 06:47:10;;;;;;;8.70;2.33;;;17.30;99.90;;;;;;20908739;28;20024;-84
2022/07/08 06:57:11;;;;;;;6.32;2.00;;;17.70;99.90;;;;;;20918552;28;20033;-84
2022/07/08 07:07:12;;;;;;;7.10;1.75;;;18.00;99.90;;;;;;20895687;28;20029;-84
2022/07/08 07:17:20;;;;;;;3.47;1.90;;;18.50;99.90;;;;;;20911516;28;20189;-83
2022/07/08 07:27:20;;;;;;;4.43;1.92;;;19.00;99.90;;;;;;20858869;28;20454;-83
2022/07/08 07:37:21;;;;;;;4.97;1.70;;;19.80;99.90;;;;;;20823917;28;20403;-84
2022/07/08 07:47:23;;;;;;;4.93;1.73;;;20.20;99.90;;;;;;20824130;28;20048;-81
2022/07/08 07:57:24;;;;;;;2.97;1.40;;;19.80;99.90;;;;;;20839537;28;20034;-85
2022/07/08 08:07:25;;;;;;;3.17;1.30;;;20.90;99.90;;;;;;20837744;28;20040;-82
2022/07/08 08:17:26;;;;;;;1.97;0.83;;;21.40;99.90;;;;;;20839469;28;20403;-83
2022/07/08 08:27:27;;;;;;;3.77;1.00;;;22.10;99.90;;;;;;20821760;28;20033;-83
2022/07/08 08:37:28;;;;;;;8.68;1.33;;;21.40;99.90;;;;;;20853087;28;20036;-86
2022/07/08 08:47:31;;;;;;;6.63;1.90;;;21.70;99.90;;;;;;20834630;28;20072;-81
2022/07/08 08:57:32;;;;;;;4.05;1.13;;;21.80;99.90;;;;;;20834270;28;20029;-85
2022/07/08 09:07:33;;;;;;;7.17;1.27;;;22.30;99.90;;;;;;20849144;28;20042;-82
2022/07/08 09:17:42;;;;;;;2.23;0.80;;;23.10;99.90;;;;;;20849431;28;20295;-81
2022/07/08 09:27:44;;;;;;;2.17;0.88;;;23.00;99.90;;;;;;20848106;28;20039;-81
2022/07/08 09:37:49;;;;;;;;;;;22.90;99.90;;;;;;20847298;28;20032;-80
2022/07/08 09:47:52;;;;;;;2.72;0.90;;;23.40;99.90;;;;;;20847478;28;19909;-81
2022/07/08 09:57:52;;;;;;;3.55;0.90;;;23.90;99.90;;;;;;20848674;28;20080;-83
2022/07/08 10:07:53;;;;;;;4.38;1.05;;;24.10;99.90;;;;;;20846298;28;20041;-80
2022/07/08 10:17:59;;;;;;;;;;;25.00;99.90;;;;;;20845036;28;20045;-82
2022/07/08 10:28:05;;;;;;;4.78;0.90;;;24.30;99.90;;;;;;20843131;28;19913;-82
2022/07/08 10:38:06;;;;;;;1.90;0.80;;;24.40;99.90;;;;;;20827496;28;20399;-87
2022/07/08 10:48:07;;;;;;;;;;;25.30;99.90;;;;;;20843596;28;20396;-85
2022/07/08 10:58:08;;;;;;;1.33;0.63;;;24.70;99.90;;;;;;20839633;28;20336;-84
2022/07/08 11:08:21;;;;;;;;;;;26.00;99.90;;;;;;20842001;28;20029;-83
2022/07/08 11:18:24;;;;;;;2.80;0.88;;;25.60;99.90;;;;;;20844308;28;20009;-87
2022/07/08 11:28:25;;;;;;;2.97;1.00;;;26.50;99.90;;;;;;20821908;28;20044;-82
2022/07/08 11:38:38;;;;;;;2.40;0.95;;;25.90;99.90;;;;;;20837132;28;20026;-82
2022/07/08 11:48:39;;;;;;;3.13;0.90;;;25.40;99.90;;;;;;20889185;28;20059;-82
2022/07/08 11:58:40;;;;;;;2.22;1.00;;;26.50;99.90;;;;;;20852370;28;20104;-82
2022/07/08 12:08:43;;;;;;;3.13;1.10;;;25.50;99.90;;;;;;20828955;28;20047;-84
2022/07/08 12:18:45;;;;;;;2.03;1.05;;;24.50;99.90;;;;;;20886398;28;20720;-83
2022/07/08 12:28:46;;;;;;;6.00;0.93;;;25.20;99.90;;;;;;20918719;28;20124;-83
2022/07/08 12:38:48;;;;;;;4.63;1.40;;;25.20;99.90;;;;;;20920697;28;20041;-84
2022/07/08 12:48:49;;;;;;;8.30;1.60;;;24.70;99.90;;;;;;20911143;28;20037;-83
2022/07/08 12:58:51;;;;;;;;;;;25.10;99.90;;;;;;20911997;28;20052;-84
2022/07/08 13:08:52;;;;;;;;;;;25.10;99.90;;;;;;20879191;28;20344;-82
2022/07/08 13:18:53;;;;;;;3.67;1.00;;;26.50;99.90;;;;;;20838602;28;20007;-84
2022/07/08 13:28:54;;;;;;;5.07;1.90;;;27.00;99.90;;;;;;20826324;28;20044;-84
2022/07/08 13:38:55;;;;;;;5.38;1.13;;;25.80;99.90;;;;;;20850570;28;20120;-84
2022/07/08 13:48:57;;;;;;;4.43;1.33;;;26.30;99.90;;;;;;20893074;28;20078;-84
2022/07/08 13:58:58;;;;;;;1.95;1.00;;;26.20;99.90;;;;;;20906279;28;20098;-83
2022/07/08 14:08:59;;;;;;;4.43;1.10;;;26.10;99.90;;;;;;20865383;28;20040;-83
2022/07/08 14:19:00;;;;;;;4.20;1.20;;;26.50;99.90;;;;;;20871687;28;20038;-83
2022/07/08 14:29:01;;;;;;;4.80;1.13;;;26.00;99.90;;;;;;20838464;28;20033;-83
2022/07/08 14:39:02;;;;;;;7.82;1.27;;;25.50;99.90;;;;;;20944816;28;20036;-84
2022/07/08 14:49:03;;;;;;;5.28;1.20;;;26.40;99.90;;;;;;20912809;28;20021;-84
2022/07/08 14:59:03;;;;;;;2.35;1.20;;;25.80;99.90;;;;;;20950201;28;20484;-83
2022/07/08 15:09:04;;;;;;;3.35;0.90;;;26.70;99.90;;;;;;20872490;28;20460;-84
2022/07/08 15:19:05;;;;;;;3.83;1.05;;;26.60;99.90;;;;;;20858528;28;20396;-83
2022/07/08 15:29:06;;;;;;;5.88;1.52;;;26.00;99.90;;;;;;20916477;28;20438;-84
2022/07/08 15:39:07;;;;;;;3.50;1.38;;;26.10;99.90;;;;;;20895677;28;20402;-83
2022/07/08 15:49:08;;;;;;;2.30;1.17;;;26.10;99.90;;;;;;20901187;28;20072;-86
2022/07/08 15:59:09;;;;;;;5.68;1.23;;;25.50;99.90;;;;;;20916658;28;20059;-84
2022/07/08 16:09:10;;;;;;;4.95;1.60;;;25.50;99.90;;;;;;20891709;28;20113;-84
2022/07/08 16:19:11;;;;;;;;;;;24.90;99.90;;;;;;20900893;28;20037;-83
2022/07/08 16:29:12;;;;;;;3.90;1.15;;;25.20;99.90;;;;;;20916879;28;19909;-84
2022/07/08 16:39:12;;;;;;;2.50;1.10;;;25.10;99.90;;;;;;20901451;28;20395;-84
2022/07/08 16:49:13;;;;;;;;;;;24.90;99.90;;;;;;20919235;28;20054;-80
2022/07/08 16:59:14;;;;;;;2.60;1.50;;;24.70;99.90;;;;;;20928098;28;19916;-82
2022/07/08 17:09:15;;;;;;;7.50;4.30;;;24.50;99.90;;;;;;20932733;28;20284;-82
2022/07/08 17:19:16;;;;;;;4.63;2.10;;;24.20;99.90;;;;;;20930412;28;20037;-82
2022/07/08 17:39:37;;;;;;;3.90;1.77;;;24.10;99.90;;;;;;20928373;28;19936;-83
2022/07/08 17:49:38;;;;;;;7.53;1.95;;;24.10;99.90;;;;;;20928220;28;20122;-83
2022/07/08 17:59:38;;;;;;;;;;;24.00;99.90;;;;;;20926105;28;20057;-83
2022/07/08 18:09:39;;;;;;;3.93;1.60;;;24.90;99.90;;;;;;20929091;28;19924;-83
2022/07/08 18:19:40;;;;;;;;;;;26.00;99.90;;;;;;20929776;28;20502;-84
2022/07/08 18:29:41;;;;;;;7.27;1.60;;;26.80;99.90;;;;;;20930811;28;19916;-85
2022/07/08 18:39:42;;;;;;;8.48;1.70;;;27.50;99.90;;;;;;20930046;28;20036;-83
2022/07/08 18:49:43;;;;;;;2.33;1.50;;;25.30;99.90;;;;;;20931257;28;20050;-82
2022/07/08 18:59:44;;;;;;;2.10;1.67;;;22.80;99.90;;;;;;20924165;28;20028;-83
2022/07/08 19:09:44;;;;;;;6.20;1.83;;;21.90;99.90;;;;;;20908228;28;20283;-83
2022/07/08 19:19:47;;;;;;;10.53;2.47;;;21.30;99.90;;;;;;20922987;28;20406;-83
2022/07/08 19:29:47;;;;;;;5.45;2.17;;;20.60;99.90;;;;;;20926788;28;20105;-82
2022/07/08 19:39:49;;;;;;;5.80;2.57;;;20.00;99.90;;;;;;20922945;28;20234;-82
2022/07/08 19:49:50;;;;;;;6.50;2.42;;;19.50;99.90;;;;;;20924111;28;20040;-84
2022/07/08 19:59:50;;;;;;;9.40;2.33;;;19.20;99.90;;;;;;20922250;28;20044;-83
2022/07/08 20:09:52;;;;;;;7.53;2.90;;;18.60;99.90;;;;;;20910902;28;20040;-81
2022/07/08 20:19:52;;;;;;;4.73;2.90;;;17.80;99.90;;;;;;20861369;28;20033;-84
2022/07/08 20:29:53;;;;;;;7.10;3.53;;;17.70;99.90;;;;;;20831321;28;20043;-82
2022/07/08 20:39:54;;;;;;;4.37;2.37;;;17.80;99.90;;;;;;20899505;28;20052;-85
2022/07/08 20:49:55;;;;;;;10.20;3.67;;;17.60;99.90;;;;;;20859965;28;20033;-83
2022/07/08 20:59:57;;;;;;;4.83;2.23;;;17.20;99.90;;;;;;20831457;28;20066;-83
2022/07/08 21:10:00;;;;;;;5.90;2.33;;;17.40;99.90;;;;;;20858550;28;20034;-82
2022/07/08 21:20:02;;;;;;;4.53;2.10;;;17.80;99.90;;;;;;20893401;28;20029;-84
2022/07/08 21:30:07;;;;;;;7.93;2.30;;;17.70;99.90;;;;;;20897794;28;20491;-83
2022/07/08 21:40:08;;;;;;;12.02;2.20;;;17.60;99.90;;;;;;20865418;28;20030;-85
2022/07/08 21:50:10;;;;;;;4.15;1.65;;;17.30;99.90;;;;;;20894906;28;20095;-82
2022/07/08 22:00:13;;;;;;;2.97;1.27;;;17.30;99.90;;;;;;20930683;28;20108;-85
2022/07/08 22:10:13;;;;;;;5.32;1.50;;;17.40;99.90;;;;;;20921519;28;20043;-84
2022/07/08 22:20:14;;;;;;;9.83;2.13;;;17.30;99.90;;;;;;20930532;28;20037;-83
2022/07/08 22:30:16;;;;;;;4.67;1.50;;;16.80;99.90;;;;;;20929917;28;20043;-82
2022/07/08 22:40:17;;;;;;;;;;;16.80;99.90;;;;;;20911953;28;20056;-83
2022/07/08 22:50:18;;;;;;;4.37;1.50;;;16.60;99.90;;;;;;20910184;28;19916;-83
2022/07/08 23:00:18;;;;;;;4.33;1.50;;;16.60;99.90;;;;;;20927227;28;20288;-83
2022/07/08 23:10:21;;;;;;;2.73;1.23;;;16.40;99.90;;;;;;20925129;28;20037;-84
2022/07/08 23:20:22;;;;;;;3.50;1.40;;;16.20;99.90;;;;;;20907866;28;20051;-84
2022/07/08 23:30:23;;;;;;;5.40;1.67;;;15.90;99.90;;;;;;20910731;23;20045;-75
2022/07/08 23:40:24;;;;;;;3.73;1.50;;;16.00;99.90;;;;;;20823998;28;20036;-76
2022/07/08 23:50:25;;;;;;;3.63;1.10;;;15.70;99.90;;;;;;20825474;28;20029;-75
